Main page
METAR-TAF:

METAR-TAF

Airports :

Bahrain, Bahrain

Bahrain International Airport

latitude: 26-16N, longitude: 050-39E, elevation: 2 m

Current weather observation

The report was made 17 minutes ago, at 09:30 UTC
Wind 8 kt from the Northwest, varying between West/Northwest and North
Temperature 34°C
Humidity 32%
Pressure 1009 hPa
Visibility 10 km or more
no clouds below 1500 m and no cumulonimbus

METAR: OBBI 220930Z 32008KT 290V350 CAVOK 34/15 Q1009 NOSIG

Time: 12:47 (09:47 UTC)

Forecast

The report was made 4 hours and 47 minutes ago, at 05:00 UTC
Forecast valid from 22 at 06 UTC to 23 at 12 UTC
Wind 10 kt from the North
Visibility 10 km or more
no clouds below 1500 m and no cumulonimbus
Becoming
from 22 at 18 UTC to 22 at 20 UTC
Wind 5 kt from variable directions
Probability 30% :
Temporary
from 23 at 00 UTC to 23 at 05 UTC
Visibility: 5000 m
haze

TAF: OBBI 220500Z 2206/2312 35010KT CAVOK BECMG 2218/2220 VRB05KT PROB30 TEMPO 2300/2305 5000 HZ

Weather observations and forecasts of more than 4000 airports (METAR and TAF reports).

The available stations are represented by yellow and red dots on the map.

Hover mouse over dot to see the name of the station.

Then click to see weather observations and forecasts.

To change the map : click on the green buttons with a black cross to zoom in, on the green button with a dash to zoom out, or on the green arrows for adjacent maps.


METAR-TAF: